sensor_id;sensor_type;location;lat;lon;timestamp;P1;durP1;ratioP1;P2;durP2;ratioP2
75787;SDS011;64406;50.024;14.492;2022-11-12T00:00:36;32.10;;;18.17;;
75787;SDS011;64406;50.024;14.492;2022-11-12T00:03:11;34.38;;;19.45;;
75787;SDS011;64406;50.024;14.492;2022-11-12T00:05:37;39.17;;;18.80;;
75787;SDS011;64406;50.024;14.492;2022-11-12T00:08:03;33.22;;;19.02;;
75787;SDS011;64406;50.024;14.492;2022-11-12T00:10:29;38.13;;;19.40;;
75787;SDS011;64406;50.024;14.492;2022-11-12T00:12:56;30.63;;;17.52;;
75787;SDS011;64406;50.024;14.492;2022-11-12T00:15:22;34.13;;;18.10;;
75787;SDS011;64406;50.024;14.492;2022-11-12T00:17:48;33.58;;;17.48;;
75787;SDS011;64406;50.024;14.492;2022-11-12T00:20:13;32.88;;;18.35;;
75787;SDS011;64406;50.024;14.492;2022-11-12T00:22:39;32.58;;;18.05;;
75787;SDS011;64406;50.024;14.492;2022-11-12T00:25:05;32.63;;;17.58;;
75787;SDS011;64406;50.024;14.492;2022-11-12T00:27:31;33.17;;;18.52;;
75787;SDS011;64406;50.024;14.492;2022-11-12T00:29:57;31.30;;;18.17;;
75787;SDS011;64406;50.024;14.492;2022-11-12T00:32:23;30.02;;;16.85;;
75787;SDS011;64406;50.024;14.492;2022-11-12T00:34:49;32.15;;;17.20;;
75787;SDS011;64406;50.024;14.492;2022-11-12T00:37:14;31.50;;;16.13;;
75787;SDS011;64406;50.024;14.492;2022-11-12T00:39:41;28.20;;;16.80;;
75787;SDS011;64406;50.024;14.492;2022-11-12T00:42:06;31.83;;;16.52;;
75787;SDS011;64406;50.024;14.492;2022-11-12T00:44:32;30.50;;;16.88;;
75787;SDS011;64406;50.024;14.492;2022-11-12T00:46:58;27.30;;;17.05;;
75787;SDS011;64406;50.024;14.492;2022-11-12T00:49:23;29.23;;;17.02;;
75787;SDS011;64406;50.024;14.492;2022-11-12T00:51:49;36.17;;;18.67;;
75787;SDS011;64406;50.024;14.492;2022-11-12T00:54:15;28.35;;;16.40;;
75787;SDS011;64406;50.024;14.492;2022-11-12T00:56:40;28.65;;;16.70;;
75787;SDS011;64406;50.024;14.492;2022-11-12T00:59:06;29.65;;;18.33;;
75787;SDS011;64406;50.024;14.492;2022-11-12T01:01:32;37.60;;;18.48;;
75787;SDS011;64406;50.024;14.492;2022-11-12T01:03:58;32.13;;;19.10;;
75787;SDS011;64406;50.024;14.492;2022-11-12T01:06:24;35.28;;;18.48;;
75787;SDS011;64406;50.024;14.492;2022-11-12T01:08:50;39.80;;;19.42;;
75787;SDS011;64406;50.024;14.492;2022-11-12T01:11:26;39.65;;;20.02;;
75787;SDS011;64406;50.024;14.492;2022-11-12T01:13:55;34.83;;;18.90;;
75787;SDS011;64406;50.024;14.492;2022-11-12T01:16:24;37.95;;;19.48;;
75787;SDS011;64406;50.024;14.492;2022-11-12T01:18:56;31.95;;;19.38;;
75787;SDS011;64406;50.024;14.492;2022-11-12T01:21:24;34.17;;;19.05;;
75787;SDS011;64406;50.024;14.492;2022-11-12T01:23:51;30.60;;;18.35;;
75787;SDS011;64406;50.024;14.492;2022-11-12T01:26:18;34.13;;;18.98;;
75787;SDS011;64406;50.024;14.492;2022-11-12T01:28:45;34.50;;;18.52;;
75787;SDS011;64406;50.024;14.492;2022-11-12T01:31:21;34.85;;;18.48;;
75787;SDS011;64406;50.024;14.492;2022-11-12T01:33:58;31.33;;;18.70;;
75787;SDS011;64406;50.024;14.492;2022-11-12T01:36:26;35.00;;;18.30;;
75787;SDS011;64406;50.024;14.492;2022-11-12T01:38:52;34.65;;;18.77;;
75787;SDS011;64406;50.024;14.492;2022-11-12T01:41:21;27.45;;;16.95;;
75787;SDS011;64406;50.024;14.492;2022-11-12T01:47:13;32.10;;;17.13;;
75787;SDS011;64406;50.024;14.492;2022-11-12T01:52:21;34.53;;;18.38;;
75787;SDS011;64406;50.024;14.492;2022-11-12T01:54:51;32.88;;;18.98;;
75787;SDS011;64406;50.024;14.492;2022-11-12T01:57:40;31.63;;;18.08;;
75787;SDS011;64406;50.024;14.492;2022-11-12T02:00:11;35.40;;;17.42;;
75787;SDS011;64406;50.024;14.492;2022-11-12T02:02:38;34.97;;;19.42;;
75787;SDS011;64406;50.024;14.492;2022-11-12T02:05:06;46.33;;;20.73;;
75787;SDS011;64406;50.024;14.492;2022-11-12T02:07:35;40.25;;;19.27;;
75787;SDS011;64406;50.024;14.492;2022-11-12T02:10:03;69.38;;;20.23;;
75787;SDS011;64406;50.024;14.492;2022-11-12T02:12:30;61.33;;;22.25;;
75787;SDS011;64406;50.024;14.492;2022-11-12T02:15:14;68.63;;;23.23;;
75787;SDS011;64406;50.024;14.492;2022-11-12T02:17:40;85.25;;;24.15;;
75787;SDS011;64406;50.024;14.492;2022-11-12T02:20:09;41.40;;;21.35;;
75787;SDS011;64406;50.024;14.492;2022-11-12T02:22:37;38.20;;;20.48;;
75787;SDS011;64406;50.024;14.492;2022-11-12T02:25:02;35.47;;;20.23;;
75787;SDS011;64406;50.024;14.492;2022-11-12T02:27:28;40.63;;;22.30;;
75787;SDS011;64406;50.024;14.492;2022-11-12T02:29:54;45.95;;;24.45;;
75787;SDS011;64406;50.024;14.492;2022-11-12T02:32:20;45.03;;;24.40;;
75787;SDS011;64406;50.024;14.492;2022-11-12T02:34:45;37.80;;;21.83;;
75787;SDS011;64406;50.024;14.492;2022-11-12T02:37:11;35.60;;;19.85;;
75787;SDS011;64406;50.024;14.492;2022-11-12T02:39:36;38.85;;;18.75;;
75787;SDS011;64406;50.024;14.492;2022-11-12T02:42:02;32.67;;;18.15;;
75787;SDS011;64406;50.024;14.492;2022-11-12T02:44:28;32.10;;;17.38;;
75787;SDS011;64406;50.024;14.492;2022-11-12T02:46:54;29.55;;;17.15;;
75787;SDS011;64406;50.024;14.492;2022-11-12T02:49:20;31.55;;;16.13;;
75787;SDS011;64406;50.024;14.492;2022-11-12T02:51:46;31.88;;;17.67;;
75787;SDS011;64406;50.024;14.492;2022-11-12T02:54:11;33.58;;;18.05;;
75787;SDS011;64406;50.024;14.492;2022-11-12T02:56:37;30.38;;;17.85;;
75787;SDS011;64406;50.024;14.492;2022-11-12T02:59:02;33.15;;;18.90;;
75787;SDS011;64406;50.024;14.492;2022-11-12T03:01:28;34.88;;;19.40;;
75787;SDS011;64406;50.024;14.492;2022-11-12T03:03:53;38.92;;;20.00;;
75787;SDS011;64406;50.024;14.492;2022-11-12T03:06:19;37.28;;;18.88;;
75787;SDS011;64406;50.024;14.492;2022-11-12T03:08:44;29.90;;;17.65;;
75787;SDS011;64406;50.024;14.492;2022-11-12T03:11:11;31.63;;;18.05;;
75787;SDS011;64406;50.024;14.492;2022-11-12T03:13:39;31.77;;;17.60;;
75787;SDS011;64406;50.024;14.492;2022-11-12T03:16:05;31.15;;;17.23;;
75787;SDS011;64406;50.024;14.492;2022-11-12T03:18:31;32.67;;;17.73;;
75787;SDS011;64406;50.024;14.492;2022-11-12T03:20:56;33.35;;;17.27;;
75787;SDS011;64406;50.024;14.492;2022-11-12T03:23:22;33.38;;;18.38;;
75787;SDS011;64406;50.024;14.492;2022-11-12T03:25:48;32.63;;;17.42;;
75787;SDS011;64406;50.024;14.492;2022-11-12T03:28:14;34.28;;;17.92;;
75787;SDS011;64406;50.024;14.492;2022-11-12T03:30:40;29.42;;;16.80;;
75787;SDS011;64406;50.024;14.492;2022-11-12T03:33:08;30.07;;;16.03;;
75787;SDS011;64406;50.024;14.492;2022-11-12T03:35:36;34.08;;;16.75;;
75787;SDS011;64406;50.024;14.492;2022-11-12T03:38:02;29.77;;;15.98;;
75787;SDS011;64406;50.024;14.492;2022-11-12T03:40:28;28.73;;;16.77;;
75787;SDS011;64406;50.024;14.492;2022-11-12T03:42:54;26.10;;;15.07;;
75787;SDS011;64406;50.024;14.492;2022-11-12T03:45:20;30.97;;;15.47;;
75787;SDS011;64406;50.024;14.492;2022-11-12T03:47:48;24.17;;;13.95;;
75787;SDS011;64406;50.024;14.492;2022-11-12T03:50:16;27.53;;;15.20;;
75787;SDS011;64406;50.024;14.492;2022-11-12T03:52:46;25.00;;;14.90;;
75787;SDS011;64406;50.024;14.492;2022-11-12T03:55:14;27.40;;;15.38;;
75787;SDS011;64406;50.024;14.492;2022-11-12T03:57:41;26.33;;;15.88;;
75787;SDS011;64406;50.024;14.492;2022-11-12T04:00:07;28.67;;;16.00;;
75787;SDS011;64406;50.024;14.492;2022-11-12T04:02:35;28.80;;;16.75;;
75787;SDS011;64406;50.024;14.492;2022-11-12T04:05:01;30.50;;;15.10;;
75787;SDS011;64406;50.024;14.492;2022-11-12T04:08:00;21.57;;;13.57;;
75787;SDS011;64406;50.024;14.492;2022-11-12T04:10:46;22.80;;;13.77;;
75787;SDS011;64406;50.024;14.492;2022-11-12T04:13:12;29.40;;;15.33;;
75787;SDS011;64406;50.024;14.492;2022-11-12T04:15:53;28.53;;;15.43;;
75787;SDS011;64406;50.024;14.492;2022-11-12T04:18:40;27.13;;;15.63;;
75787;SDS011;64406;50.024;14.492;2022-11-12T04:21:30;25.88;;;15.48;;
75787;SDS011;64406;50.024;14.492;2022-11-12T04:27:01;26.30;;;14.93;;
75787;SDS011;64406;50.024;14.492;2022-11-12T04:29:27;32.33;;;15.70;;
75787;SDS011;64406;50.024;14.492;2022-11-12T04:34:37;26.03;;;14.47;;
75787;SDS011;64406;50.024;14.492;2022-11-12T04:37:03;31.80;;;16.80;;
75787;SDS011;64406;50.024;14.492;2022-11-12T04:39:30;30.73;;;16.10;;
75787;SDS011;64406;50.024;14.492;2022-11-12T04:41:56;29.07;;;16.10;;
75787;SDS011;64406;50.024;14.492;2022-11-12T04:44:41;26.43;;;14.97;;
75787;SDS011;64406;50.024;14.492;2022-11-12T04:47:27;23.93;;;14.87;;
75787;SDS011;64406;50.024;14.492;2022-11-12T04:49:54;31.10;;;15.70;;
75787;SDS011;64406;50.024;14.492;2022-11-12T04:52:20;29.17;;;15.93;;
75787;SDS011;64406;50.024;14.492;2022-11-12T04:54:45;27.80;;;14.87;;
75787;SDS011;64406;50.024;14.492;2022-11-12T04:57:11;29.47;;;15.27;;
75787;SDS011;64406;50.024;14.492;2022-11-12T04:59:37;28.80;;;15.23;;
75787;SDS011;64406;50.024;14.492;2022-11-12T05:02:02;27.97;;;16.07;;
75787;SDS011;64406;50.024;14.492;2022-11-12T05:04:28;29.67;;;17.00;;
75787;SDS011;64406;50.024;14.492;2022-11-12T05:06:54;38.93;;;19.00;;
75787;SDS011;64406;50.024;14.492;2022-11-12T05:09:22;35.20;;;19.07;;
75787;SDS011;64406;50.024;14.492;2022-11-12T05:11:52;41.20;;;19.57;;
75787;SDS011;64406;50.024;14.492;2022-11-12T05:14:20;38.97;;;19.47;;
75787;SDS011;64406;50.024;14.492;2022-11-12T05:16:46;40.03;;;18.73;;
75787;SDS011;64406;50.024;14.492;2022-11-12T05:19:12;35.67;;;18.30;;
75787;SDS011;64406;50.024;14.492;2022-11-12T05:21:38;39.67;;;19.67;;
75787;SDS011;64406;50.024;14.492;2022-11-12T05:24:23;42.37;;;20.63;;
75787;SDS011;64406;50.024;14.492;2022-11-12T05:26:48;39.17;;;18.50;;
75787;SDS011;64406;50.024;14.492;2022-11-12T05:29:14;32.57;;;18.40;;
75787;SDS011;64406;50.024;14.492;2022-11-12T05:31:40;38.40;;;20.00;;
75787;SDS011;64406;50.024;14.492;2022-11-12T05:34:06;43.13;;;19.60;;
75787;SDS011;64406;50.024;14.492;2022-11-12T05:36:32;38.07;;;18.70;;
75787;SDS011;64406;50.024;14.492;2022-11-12T05:38:58;32.77;;;18.37;;
75787;SDS011;64406;50.024;14.492;2022-11-12T05:41:24;28.27;;;17.13;;
75787;SDS011;64406;50.024;14.492;2022-11-12T05:43:50;31.53;;;16.77;;
75787;SDS011;64406;50.024;14.492;2022-11-12T05:46:16;31.03;;;16.13;;
75787;SDS011;64406;50.024;14.492;2022-11-12T05:48:41;31.20;;;17.43;;
75787;SDS011;64406;50.024;14.492;2022-11-12T05:51:07;33.93;;;17.73;;
75787;SDS011;64406;50.024;14.492;2022-11-12T05:53:33;28.63;;;15.63;;
75787;SDS011;64406;50.024;14.492;2022-11-12T05:56:04;25.33;;;14.53;;
75787;SDS011;64406;50.024;14.492;2022-11-12T05:58:31;26.17;;;14.48;;
75787;SDS011;64406;50.024;14.492;2022-11-12T06:00:57;27.17;;;15.83;;
75787;SDS011;64406;50.024;14.492;2022-11-12T06:03:23;29.23;;;14.23;;
75787;SDS011;64406;50.024;14.492;2022-11-12T06:05:49;25.47;;;14.40;;
75787;SDS011;64406;50.024;14.492;2022-11-12T06:08:14;26.73;;;13.83;;
75787;SDS011;64406;50.024;14.492;2022-11-12T06:10:40;23.30;;;14.13;;
75787;SDS011;64406;50.024;14.492;2022-11-12T06:13:06;29.57;;;14.67;;
75787;SDS011;64406;50.024;14.492;2022-11-12T06:15:32;22.50;;;13.30;;
75787;SDS011;64406;50.024;14.492;2022-11-12T06:17:57;27.60;;;14.87;;
75787;SDS011;64406;50.024;14.492;2022-11-12T06:20:23;26.60;;;13.77;;
75787;SDS011;64406;50.024;14.492;2022-11-12T06:22:49;22.43;;;13.63;;
75787;SDS011;64406;50.024;14.492;2022-11-12T06:25:15;24.90;;;13.53;;
75787;SDS011;64406;50.024;14.492;2022-11-12T06:27:41;30.57;;;17.27;;
75787;SDS011;64406;50.024;14.492;2022-11-12T06:30:07;29.77;;;15.63;;
75787;SDS011;64406;50.024;14.492;2022-11-12T06:32:33;33.73;;;16.60;;
75787;SDS011;64406;50.024;14.492;2022-11-12T06:34:59;27.83;;;15.50;;
75787;SDS011;64406;50.024;14.492;2022-11-12T06:37:25;33.73;;;16.50;;
75787;SDS011;64406;50.024;14.492;2022-11-12T06:39:50;33.20;;;16.93;;
75787;SDS011;64406;50.024;14.492;2022-11-12T06:42:16;29.27;;;16.23;;
75787;SDS011;64406;50.024;14.492;2022-11-12T06:44:42;30.83;;;15.83;;
75787;SDS011;64406;50.024;14.492;2022-11-12T06:47:08;34.17;;;16.97;;
75787;SDS011;64406;50.024;14.492;2022-11-12T06:49:34;38.53;;;17.20;;
75787;SDS011;64406;50.024;14.492;2022-11-12T06:52:00;35.80;;;17.53;;
75787;SDS011;64406;50.024;14.492;2022-11-12T06:54:25;49.57;;;20.67;;
75787;SDS011;64406;50.024;14.492;2022-11-12T06:56:51;58.20;;;20.73;;
75787;SDS011;64406;50.024;14.492;2022-11-12T06:59:16;70.67;;;22.50;;
75787;SDS011;64406;50.024;14.492;2022-11-12T07:01:42;100.50;;;23.60;;
75787;SDS011;64406;50.024;14.492;2022-11-12T07:04:08;71.03;;;23.90;;
75787;SDS011;64406;50.024;14.492;2022-11-12T07:06:35;75.57;;;20.80;;
75787;SDS011;64406;50.024;14.492;2022-11-12T07:09:00;56.50;;;19.07;;
75787;SDS011;64406;50.024;14.492;2022-11-12T07:11:26;63.83;;;18.23;;
75787;SDS011;64406;50.024;14.492;2022-11-12T07:13:54;73.13;;;16.20;;
75787;SDS011;64406;50.024;14.492;2022-11-12T07:16:19;76.23;;;17.57;;
75787;SDS011;64406;50.024;14.492;2022-11-12T07:18:46;68.60;;;17.53;;
75787;SDS011;64406;50.024;14.492;2022-11-12T07:21:18;64.07;;;16.40;;
75787;SDS011;64406;50.024;14.492;2022-11-12T07:23:45;78.97;;;17.90;;
75787;SDS011;64406;50.024;14.492;2022-11-12T07:26:12;49.57;;;19.17;;
75787;SDS011;64406;50.024;14.492;2022-11-12T07:28:43;85.97;;;20.50;;
75787;SDS011;64406;50.024;14.492;2022-11-12T07:31:10;64.00;;;18.00;;
75787;SDS011;64406;50.024;14.492;2022-11-12T07:33:37;90.20;;;20.67;;
75787;SDS011;64406;50.024;14.492;2022-11-12T07:36:06;106.47;;;18.57;;
75787;SDS011;64406;50.024;14.492;2022-11-12T07:38:35;130.20;;;23.77;;
75787;SDS011;64406;50.024;14.492;2022-11-12T07:41:03;144.53;;;22.07;;
75787;SDS011;64406;50.024;14.492;2022-11-12T07:43:30;149.63;;;21.37;;
75787;SDS011;64406;50.024;14.492;2022-11-12T07:46:00;85.13;;;18.50;;
75787;SDS011;64406;50.024;14.492;2022-11-12T07:48:29;95.60;;;20.30;;
75787;SDS011;64406;50.024;14.492;2022-11-12T07:51:04;121.90;;;21.77;;
75787;SDS011;64406;50.024;14.492;2022-11-12T07:53:37;179.33;;;23.77;;
75787;SDS011;64406;50.024;14.492;2022-11-12T07:56:02;186.63;;;25.50;;
75787;SDS011;64406;50.024;14.492;2022-11-12T07:58:29;191.73;;;25.17;;
75787;SDS011;64406;50.024;14.492;2022-11-12T08:00:56;159.37;;;24.77;;
75787;SDS011;64406;50.024;14.492;2022-11-12T08:03:22;179.70;;;25.47;;
75787;SDS011;64406;50.024;14.492;2022-11-12T08:05:48;131.17;;;24.70;;
75787;SDS011;64406;50.024;14.492;2022-11-12T08:08:14;185.87;;;27.50;;
75787;SDS011;64406;50.024;14.492;2022-11-12T08:10:40;116.07;;;23.70;;
75787;SDS011;64406;50.024;14.492;2022-11-12T08:13:05;122.10;;;22.70;;
75787;SDS011;64406;50.024;14.492;2022-11-12T08:15:31;100.35;;;21.17;;
75787;SDS011;64406;50.024;14.492;2022-11-12T08:17:57;61.47;;;17.63;;
75787;SDS011;64406;50.024;14.492;2022-11-12T08:20:22;103.20;;;20.27;;
75787;SDS011;64406;50.024;14.492;2022-11-12T08:22:48;55.00;;;19.33;;
75787;SDS011;64406;50.024;14.492;2022-11-12T08:25:13;70.40;;;18.45;;
75787;SDS011;64406;50.024;14.492;2022-11-12T08:27:39;69.55;;;18.08;;
75787;SDS011;64406;50.024;14.492;2022-11-12T08:30:05;130.13;;;21.63;;
75787;SDS011;64406;50.024;14.492;2022-11-12T08:32:32;73.75;;;16.65;;
75787;SDS011;64406;50.024;14.492;2022-11-12T08:34:57;34.05;;;15.07;;
75787;SDS011;64406;50.024;14.492;2022-11-12T08:37:23;63.08;;;17.00;;
75787;SDS011;64406;50.024;14.492;2022-11-12T08:39:48;41.10;;;15.80;;
75787;SDS011;64406;50.024;14.492;2022-11-12T08:42:14;33.50;;;14.50;;
75787;SDS011;64406;50.024;14.492;2022-11-12T08:44:40;38.67;;;15.55;;
75787;SDS011;64406;50.024;14.492;2022-11-12T08:47:05;34.38;;;16.55;;
75787;SDS011;64406;50.024;14.492;2022-11-12T08:49:31;37.15;;;15.80;;
75787;SDS011;64406;50.024;14.492;2022-11-12T08:51:57;27.25;;;14.07;;
75787;SDS011;64406;50.024;14.492;2022-11-12T08:54:22;26.15;;;13.55;;
75787;SDS011;64406;50.024;14.492;2022-11-12T08:56:49;25.42;;;14.13;;
75787;SDS011;64406;50.024;14.492;2022-11-12T08:59:14;23.38;;;13.45;;
75787;SDS011;64406;50.024;14.492;2022-11-12T09:01:40;23.17;;;13.50;;
75787;SDS011;64406;50.024;14.492;2022-11-12T09:04:06;26.58;;;13.88;;
75787;SDS011;64406;50.024;14.492;2022-11-12T09:06:31;25.67;;;13.57;;
75787;SDS011;64406;50.024;14.492;2022-11-12T09:08:57;30.02;;;15.07;;
75787;SDS011;64406;50.024;14.492;2022-11-12T09:11:23;33.40;;;15.27;;
75787;SDS011;64406;50.024;14.492;2022-11-12T09:13:51;34.63;;;16.50;;
75787;SDS011;64406;50.024;14.492;2022-11-12T09:16:17;30.13;;;15.75;;
75787;SDS011;64406;50.024;14.492;2022-11-12T09:18:43;28.75;;;15.15;;
75787;SDS011;64406;50.024;14.492;2022-11-12T09:21:10;32.53;;;17.08;;
75787;SDS011;64406;50.024;14.492;2022-11-12T09:23:36;31.65;;;16.20;;
75787;SDS011;64406;50.024;14.492;2022-11-12T09:26:02;32.05;;;16.98;;
75787;SDS011;64406;50.024;14.492;2022-11-12T09:28:29;34.13;;;17.60;;
75787;SDS011;64406;50.024;14.492;2022-11-12T09:30:55;32.33;;;16.77;;
75787;SDS011;64406;50.024;14.492;2022-11-12T09:33:25;32.22;;;16.98;;
75787;SDS011;64406;50.024;14.492;2022-11-12T09:35:52;33.85;;;16.65;;
75787;SDS011;64406;50.024;14.492;2022-11-12T09:38:18;37.40;;;18.63;;
75787;SDS011;64406;50.024;14.492;2022-11-12T09:43:20;29.50;;;16.35;;
75787;SDS011;64406;50.024;14.492;2022-11-12T09:48:28;34.75;;;17.70;;
75787;SDS011;64406;50.024;14.492;2022-11-12T09:51:02;30.83;;;17.05;;
75787;SDS011;64406;50.024;14.492;2022-11-12T09:56:31;28.58;;;14.65;;
75787;SDS011;64406;50.024;14.492;2022-11-12T09:58:57;24.05;;;14.32;;
75787;SDS011;64406;50.024;14.492;2022-11-12T10:01:29;20.02;;;12.85;;
75787;SDS011;64406;50.024;14.492;2022-11-12T10:04:17;24.73;;;13.45;;
75787;SDS011;64406;50.024;14.492;2022-11-12T10:15:31;17.25;;;10.07;;
75787;SDS011;64406;50.024;14.492;2022-11-12T10:23:58;18.73;;;10.65;;
75787;SDS011;64406;50.024;14.492;2022-11-12T10:26:25;19.52;;;10.60;;
75787;SDS011;64406;50.024;14.492;2022-11-12T10:29:06;23.73;;;11.77;;
75787;SDS011;64406;50.024;14.492;2022-11-12T10:31:36;18.80;;;11.25;;
75787;SDS011;64406;50.024;14.492;2022-11-12T10:36:37;22.58;;;11.65;;
75787;SDS011;64406;50.024;14.492;2022-11-12T10:39:06;18.40;;;10.40;;
75787;SDS011;64406;50.024;14.492;2022-11-12T10:41:32;20.60;;;11.55;;
75787;SDS011;64406;50.024;14.492;2022-11-12T10:43:59;21.42;;;11.07;;
75787;SDS011;64406;50.024;14.492;2022-11-12T10:46:27;17.45;;;11.00;;
75787;SDS011;64406;50.024;14.492;2022-11-12T10:48:56;23.75;;;12.60;;
75787;SDS011;64406;50.024;14.492;2022-11-12T10:51:55;19.85;;;11.55;;
75787;SDS011;64406;50.024;14.492;2022-11-12T10:56:51;18.48;;;11.25;;
75787;SDS011;64406;50.024;14.492;2022-11-12T10:59:20;16.80;;;11.02;;
75787;SDS011;64406;50.024;14.492;2022-11-12T11:01:53;16.83;;;10.23;;
75787;SDS011;64406;50.024;14.492;2022-11-12T11:06:57;18.65;;;10.85;;
75787;SDS011;64406;50.024;14.492;2022-11-12T11:09:24;16.55;;;11.15;;
75787;SDS011;64406;50.024;14.492;2022-11-12T11:11:51;18.08;;;10.23;;
75787;SDS011;64406;50.024;14.492;2022-11-12T11:16:53;16.00;;;8.85;;
75787;SDS011;64406;50.024;14.492;2022-11-12T11:19:22;14.23;;;7.53;;
75787;SDS011;64406;50.024;14.492;2022-11-12T11:22:00;14.25;;;7.95;;
75787;SDS011;64406;50.024;14.492;2022-11-12T11:30:00;10.23;;;6.57;;
75787;SDS011;64406;50.024;14.492;2022-11-12T11:43:57;19.15;;;11.77;;
75787;SDS011;64406;50.024;14.492;2022-11-12T11:46:30;19.50;;;10.25;;
75787;SDS011;64406;50.024;14.492;2022-11-12T11:57:43;17.70;;;11.52;;
75787;SDS011;64406;50.024;14.492;2022-11-12T12:00:20;17.33;;;10.82;;
75787;SDS011;64406;50.024;14.492;2022-11-12T12:08:40;17.38;;;11.02;;
75787;SDS011;64406;50.024;14.492;2022-11-12T12:11:23;15.15;;;11.00;;
75787;SDS011;64406;50.024;14.492;2022-11-12T12:14:14;17.23;;;10.75;;
75787;SDS011;64406;50.024;14.492;2022-11-12T12:25:31;17.70;;;10.80;;
75787;SDS011;64406;50.024;14.492;2022-11-12T12:30:40;23.23;;;12.13;;
75787;SDS011;64406;50.024;14.492;2022-11-12T12:33:21;20.73;;;12.40;;
75787;SDS011;64406;50.024;14.492;2022-11-12T12:35:58;19.23;;;12.27;;
75787;SDS011;64406;50.024;14.492;2022-11-12T12:38:31;25.05;;;12.75;;
75787;SDS011;64406;50.024;14.492;2022-11-12T12:46:29;23.48;;;14.40;;
75787;SDS011;64406;50.024;14.492;2022-11-12T12:49:00;23.67;;;15.13;;
75787;SDS011;64406;50.024;14.492;2022-11-12T12:51:29;26.95;;;14.77;;
75787;SDS011;64406;50.024;14.492;2022-11-12T12:53:56;30.20;;;16.10;;
75787;SDS011;64406;50.024;14.492;2022-11-12T12:58:55;33.17;;;16.35;;
75787;SDS011;64406;50.024;14.492;2022-11-12T13:06:22;24.75;;;14.70;;
75787;SDS011;64406;50.024;14.492;2022-11-12T13:09:33;26.17;;;15.02;;
75787;SDS011;64406;50.024;14.492;2022-11-12T13:16:59;22.85;;;14.25;;
75787;SDS011;64406;50.024;14.492;2022-11-12T13:19:26;27.25;;;15.23;;
75787;SDS011;64406;50.024;14.492;2022-11-12T13:30:07;29.83;;;17.65;;
75787;SDS011;64406;50.024;14.492;2022-11-12T13:48:14;30.65;;;17.50;;
75787;SDS011;64406;50.024;14.492;2022-11-12T13:50:48;30.17;;;18.83;;
75787;SDS011;64406;50.024;14.492;2022-11-12T13:53:17;31.10;;;17.90;;
75787;SDS011;64406;50.024;14.492;2022-11-12T13:55:49;33.85;;;17.60;;
75787;SDS011;64406;50.024;14.492;2022-11-12T13:58:23;33.88;;;18.70;;
75787;SDS011;64406;50.024;14.492;2022-11-12T14:00:52;32.97;;;19.77;;
75787;SDS011;64406;50.024;14.492;2022-11-12T14:03:19;32.33;;;19.20;;
75787;SDS011;64406;50.024;14.492;2022-11-12T14:05:48;34.13;;;18.80;;
75787;SDS011;64406;50.024;14.492;2022-11-12T14:16:53;30.85;;;18.15;;
75787;SDS011;64406;50.024;14.492;2022-11-12T14:22:27;32.15;;;18.83;;
75787;SDS011;64406;50.024;14.492;2022-11-12T14:25:02;36.13;;;20.98;;
75787;SDS011;64406;50.024;14.492;2022-11-12T14:30:15;36.63;;;20.25;;
75787;SDS011;64406;50.024;14.492;2022-11-12T14:32:49;37.53;;;19.98;;
75787;SDS011;64406;50.024;14.492;2022-11-12T14:35:27;37.08;;;19.35;;
75787;SDS011;64406;50.024;14.492;2022-11-12T14:37:59;35.30;;;19.35;;
75787;SDS011;64406;50.024;14.492;2022-11-12T14:40:31;40.28;;;20.10;;
75787;SDS011;64406;50.024;14.492;2022-11-12T14:42:59;33.40;;;19.38;;
75787;SDS011;64406;50.024;14.492;2022-11-12T14:45:25;34.58;;;19.73;;
75787;SDS011;64406;50.024;14.492;2022-11-12T14:47:51;44.38;;;20.13;;
75787;SDS011;64406;50.024;14.492;2022-11-12T14:50:19;37.45;;;20.90;;
75787;SDS011;64406;50.024;14.492;2022-11-12T14:52:51;36.08;;;20.55;;
75787;SDS011;64406;50.024;14.492;2022-11-12T14:55:25;38.63;;;20.80;;
75787;SDS011;64406;50.024;14.492;2022-11-12T14:57:55;40.47;;;21.00;;
75787;SDS011;64406;50.024;14.492;2022-11-12T15:02:55;35.45;;;20.70;;
75787;SDS011;64406;50.024;14.492;2022-11-12T15:05:22;43.40;;;21.70;;
75787;SDS011;64406;50.024;14.492;2022-11-12T15:08:04;41.28;;;21.27;;
75787;SDS011;64406;50.024;14.492;2022-11-12T15:10:35;44.78;;;22.10;;
75787;SDS011;64406;50.024;14.492;2022-11-12T15:13:07;48.30;;;22.13;;
75787;SDS011;64406;50.024;14.492;2022-11-12T15:15:57;48.20;;;22.23;;
75787;SDS011;64406;50.024;14.492;2022-11-12T15:18:29;46.90;;;23.38;;
75787;SDS011;64406;50.024;14.492;2022-11-12T15:21:30;53.88;;;23.05;;
75787;SDS011;64406;50.024;14.492;2022-11-12T15:23:59;53.72;;;23.83;;
75787;SDS011;64406;50.024;14.492;2022-11-12T15:26:34;71.22;;;23.38;;
75787;SDS011;64406;50.024;14.492;2022-11-12T15:29:10;70.10;;;23.15;;
75787;SDS011;64406;50.024;14.492;2022-11-12T15:31:46;74.40;;;22.25;;
75787;SDS011;64406;50.024;14.492;2022-11-12T15:34:33;94.43;;;23.13;;
75787;SDS011;64406;50.024;14.492;2022-11-12T15:37:05;90.50;;;23.23;;
75787;SDS011;64406;50.024;14.492;2022-11-12T15:39:37;140.40;;;25.73;;
75787;SDS011;64406;50.024;14.492;2022-11-12T15:42:12;110.40;;;26.65;;
75787;SDS011;64406;50.024;14.492;2022-11-12T15:45:02;97.50;;;25.55;;
75787;SDS011;64406;50.024;14.492;2022-11-12T15:47:34;113.75;;;26.00;;
75787;SDS011;64406;50.024;14.492;2022-11-12T15:50:00;116.72;;;26.75;;
75787;SDS011;64406;50.024;14.492;2022-11-12T15:52:39;128.38;;;27.50;;
75787;SDS011;64406;50.024;14.492;2022-11-12T15:55:05;128.48;;;30.63;;
75787;SDS011;64406;50.024;14.492;2022-11-12T15:57:32;95.53;;;24.83;;
75787;SDS011;64406;50.024;14.492;2022-11-12T16:00:21;116.72;;;24.42;;
75787;SDS011;64406;50.024;14.492;2022-11-12T16:02:58;106.53;;;25.85;;
75787;SDS011;64406;50.024;14.492;2022-11-12T16:05:36;112.75;;;25.27;;
75787;SDS011;64406;50.024;14.492;2022-11-12T16:08:02;124.28;;;25.33;;
75787;SDS011;64406;50.024;14.492;2022-11-12T16:10:28;103.70;;;25.48;;
75787;SDS011;64406;50.024;14.492;2022-11-12T16:12:55;68.57;;;22.23;;
75787;SDS011;64406;50.024;14.492;2022-11-12T16:15:23;91.45;;;23.90;;
75787;SDS011;64406;50.024;14.492;2022-11-12T16:17:51;116.72;;;24.42;;
75787;SDS011;64406;50.024;14.492;2022-11-12T16:20:23;109.32;;;24.98;;
75787;SDS011;64406;50.024;14.492;2022-11-12T16:22:50;62.28;;;21.63;;
75787;SDS011;64406;50.024;14.492;2022-11-12T16:25:17;59.28;;;21.50;;
75787;SDS011;64406;50.024;14.492;2022-11-12T16:27:44;104.85;;;23.85;;
75787;SDS011;64406;50.024;14.492;2022-11-12T16:30:15;87.97;;;22.60;;
75787;SDS011;64406;50.024;14.492;2022-11-12T16:32:43;86.03;;;23.42;;
75787;SDS011;64406;50.024;14.492;2022-11-12T16:35:09;72.78;;;22.83;;
75787;SDS011;64406;50.024;14.492;2022-11-12T16:37:35;74.95;;;21.98;;
75787;SDS011;64406;50.024;14.492;2022-11-12T16:40:04;91.10;;;22.30;;
75787;SDS011;64406;50.024;14.492;2022-11-12T16:42:31;136.15;;;24.75;;
75787;SDS011;64406;50.024;14.492;2022-11-12T16:44:58;99.25;;;20.95;;